createdAt,value
2022-10-08T00:00:04.819Z,100397.75
2022-10-08T00:02:54.166Z,100390.94
2022-10-08T00:05:42.661Z,100377.28
2022-10-08T00:08:34.325Z,100384.66
2022-10-08T00:11:24.948Z,100383.59
2022-10-08T00:14:13.417Z,100385.22
2022-10-08T00:17:01.832Z,100377.13
2022-10-08T00:19:50.259Z,100358.38
2022-10-08T00:22:38.721Z,100380.91
2022-10-08T00:25:28.924Z,100387.94
2022-10-08T00:28:17.415Z,100386.31
2022-10-08T00:31:07.607Z,100318.22
2022-10-08T00:33:57.484Z,100385.34
2022-10-08T00:36:47.382Z,100375.22
2022-10-08T00:39:35.840Z,100371.13
2022-10-08T00:42:26.047Z,100391.19
2022-10-08T00:45:15.036Z,100383.53
2022-10-08T00:48:03.844Z,100374.47
2022-10-08T00:50:52.729Z,100386.09
2022-10-08T00:53:41.172Z,100380.47
2022-10-08T00:56:30.975Z,100378.59
2022-10-08T00:59:21.341Z,100369.06
2022-10-08T01:02:10.009Z,100380.47
2022-10-08T01:04:58.769Z,100360.03
2022-10-08T01:07:50.321Z,100379.47
2022-10-08T01:10:44.661Z,100373.47
2022-10-08T01:13:41.505Z,100369.53
2022-10-08T01:16:37.239Z,100358.88
2022-10-08T01:19:54.790Z,100276.94
2022-10-08T01:23:03.155Z,100370.44
2022-10-08T01:25:57.544Z,100367.75
2022-10-08T01:28:52.907Z,100380.34
2022-10-08T01:31:44.709Z,100373.69
2022-10-08T01:34:37.550Z,100382.78
2022-10-08T01:37:31.801Z,100378.00
2022-10-08T01:40:22.269Z,100379.03
2022-10-08T01:43:12.801Z,100376.53
2022-10-08T01:46:07.081Z,100370.34
2022-10-08T01:48:58.896Z,100372.59
2022-10-08T01:51:52.235Z,100371.16
2022-10-08T01:54:43.165Z,100371.34
2022-10-08T01:57:33.961Z,100373.06
2022-10-08T02:00:22.599Z,100368.97
2022-10-08T02:03:12.422Z,100367.69
2022-10-08T02:06:04.036Z,100366.81
2022-10-08T02:08:52.464Z,100376.91
2022-10-08T02:11:41.547Z,100374.66
2022-10-08T02:14:31.356Z,100371.09
2022-10-08T02:17:25.480Z,100368.84
2022-10-08T02:20:20.511Z,100364.88
2022-10-08T02:23:12.140Z,100364.19
2022-10-08T02:26:01.751Z,100373.06
2022-10-08T02:28:51.801Z,100368.72
2022-10-08T02:31:44.484Z,100364.59
2022-10-08T02:34:37.714Z,100371.19
2022-10-08T02:37:32.656Z,100361.44
2022-10-08T02:40:21.392Z,100351.84
2022-10-08T02:43:15.572Z,100369.16
2022-10-08T02:46:09.598Z,100372.47
2022-10-08T02:49:02.889Z,100375.69
2022-10-08T02:51:52.431Z,100369.38
2022-10-08T02:54:43.759Z,100367.59
2022-10-08T02:57:35.441Z,100366.91
2022-10-08T03:00:24.327Z,100387.38
2022-10-08T03:03:14.836Z,100385.09
2022-10-08T03:06:05.490Z,100394.78
2022-10-08T03:08:58.979Z,100386.69
2022-10-08T03:11:49.294Z,100374.44
2022-10-08T03:14:46.713Z,100387.28
2022-10-08T03:17:37.732Z,100385.88
2022-10-08T03:20:26.710Z,100391.63
2022-10-08T03:23:16.992Z,100402.44
2022-10-08T03:26:05.521Z,100402.44
2022-10-08T03:28:55.359Z,100390.75
2022-10-08T03:31:43.780Z,100408.06
2022-10-08T03:34:32.192Z,100391.22
2022-10-08T03:37:21.152Z,100412.16
2022-10-08T03:40:11.192Z,100391.97
2022-10-08T03:42:59.602Z,100418.53
2022-10-08T03:45:51.999Z,100427.91
2022-10-08T03:48:40.876Z,100431.28
2022-10-08T03:51:29.434Z,100431.88
2022-10-08T03:54:17.904Z,100423.25
2022-10-08T03:57:06.455Z,100436.47
2022-10-08T03:59:54.942Z,100453.47
2022-10-08T04:02:44.992Z,100447.84
2022-10-08T04:05:33.680Z,100451.84
2022-10-08T04:08:22.410Z,100455.44
2022-10-08T04:11:15.485Z,100424.44
2022-10-08T04:14:03.914Z,100458.38
2022-10-08T04:16:52.341Z,100456.41
2022-10-08T04:19:42.103Z,100462.59
2022-10-08T04:22:30.526Z,100422.50
2022-10-08T04:25:18.928Z,100469.25
2022-10-08T04:28:07.560Z,100450.31
2022-10-08T04:30:57.338Z,100447.09
2022-10-08T04:33:46.616Z,100463.31
2022-10-08T04:36:36.392Z,100470.16
2022-10-08T04:39:24.835Z,100466.31
2022-10-08T04:42:13.257Z,100466.94
2022-10-08T04:45:01.697Z,100468.22
2022-10-08T04:47:50.103Z,100466.19
2022-10-08T04:50:39.047Z,100472.25
2022-10-08T04:53:29.266Z,100473.28
2022-10-08T04:56:19.142Z,100475.09
2022-10-08T04:59:07.546Z,100466.84
2022-10-08T05:01:56.738Z,100478.41
2022-10-08T05:04:45.277Z,100488.03
2022-10-08T05:07:33.711Z,100484.94
2022-10-08T05:10:23.764Z,100482.63
2022-10-08T05:13:12.592Z,100478.69
2022-10-08T05:16:04.327Z,100484.31
2022-10-08T05:18:53.341Z,100444.09
2022-10-08T05:21:41.811Z,100476.06
2022-10-08T05:24:30.222Z,100486.66
2022-10-08T05:27:20.011Z,100486.50
2022-10-08T05:30:09.694Z,100487.31
2022-10-08T05:32:58.156Z,100486.72
2022-10-08T05:35:46.584Z,100490.25
2022-10-08T05:38:35.663Z,100486.34
2022-10-08T05:41:25.693Z,100486.78
2022-10-08T05:44:15.472Z,100497.44
2022-10-08T05:47:03.952Z,100505.97
2022-10-08T05:49:52.386Z,100503.13
2022-10-08T05:52:40.848Z,100503.34
2022-10-08T05:55:29.963Z,100506.09
2022-10-08T05:58:18.364Z,100518.31
2022-10-08T06:01:09.352Z,100517.06
2022-10-08T06:03:59.036Z,100521.41
2022-10-08T06:06:47.695Z,100527.03
2022-10-08T06:09:36.140Z,100530.34
2022-10-08T06:12:25.040Z,100516.88
2022-10-08T06:15:13.446Z,100522.06
2022-10-08T06:18:03.233Z,100541.06
2022-10-08T06:20:51.683Z,100554.34
2022-10-08T06:23:41.068Z,100548.13
2022-10-08T06:26:35.744Z,100562.19
2022-10-08T06:29:24.725Z,100561.09
2022-10-08T06:32:13.176Z,100563.09
2022-10-08T06:35:02.933Z,100562.44
2022-10-08T06:37:51.371Z,100567.16
2022-10-08T06:40:40.806Z,100562.38
2022-10-08T06:43:29.240Z,100571.03
2022-10-08T06:46:18.755Z,100575.53
2022-10-08T06:49:07.430Z,100580.69
2022-10-08T06:51:57.232Z,100571.31
2022-10-08T06:54:45.656Z,100573.41
2022-10-08T06:57:34.114Z,100539.72
2022-10-08T07:00:22.583Z,100593.63
2022-10-08T07:03:10.967Z,100610.88
2022-10-08T07:06:01.065Z,100591.72
2022-10-08T07:08:54.719Z,100578.53
2022-10-08T07:11:43.253Z,100596.97
2022-10-08T07:14:31.659Z,100599.56
2022-10-08T07:17:20.413Z,100611.50
2022-10-08T07:20:09.150Z,100615.00
2022-10-08T07:22:57.668Z,100570.94
2022-10-08T07:25:56.060Z,100615.06
2022-10-08T07:28:49.393Z,100614.84
2022-10-08T07:31:39.134Z,100604.47
2022-10-08T07:34:27.662Z,100628.75
2022-10-08T07:37:16.097Z,100627.94
2022-10-08T07:40:05.369Z,100625.75
2022-10-08T07:42:55.162Z,100631.47
2022-10-08T07:45:46.756Z,100631.03
2022-10-08T07:48:36.041Z,100641.84
2022-10-08T07:51:24.647Z,100640.09
2022-10-08T07:54:15.676Z,100645.06
2022-10-08T07:57:04.127Z,100648.50
2022-10-08T07:59:53.874Z,100650.69
2022-10-08T08:02:42.431Z,100617.09
2022-10-08T08:05:36.151Z,100651.69
2022-10-08T08:08:24.795Z,100655.97
2022-10-08T08:11:15.380Z,100659.53
2022-10-08T08:14:03.812Z,100662.69
2022-10-08T08:16:53.677Z,100665.00
2022-10-08T08:19:42.148Z,100663.00
2022-10-08T08:22:30.863Z,100637.63
2022-10-08T08:25:19.328Z,100664.22
2022-10-08T08:28:07.966Z,100658.47
2022-10-08T08:30:57.615Z,100668.22
2022-10-08T08:33:51.305Z,100672.53
2022-10-08T08:36:41.985Z,100674.09
2022-10-08T08:39:31.766Z,100664.91
2022-10-08T08:42:40.526Z,100670.66
2022-10-08T08:45:46.465Z,100682.44
2022-10-08T08:48:37.904Z,100685.63
2022-10-08T08:51:27.867Z,100687.63
2022-10-08T08:54:16.497Z,100674.53
2022-10-08T08:57:13.234Z,100670.09
2022-10-08T09:00:04.704Z,100693.66
2022-10-08T09:02:58.318Z,100703.09
2022-10-08T09:05:49.507Z,100696.28
2022-10-08T09:08:42.284Z,100704.97
2022-10-08T09:11:31.143Z,100708.06
2022-10-08T09:14:30.636Z,100698.97
2022-10-08T09:17:20.542Z,100710.53
2022-10-08T09:20:11.582Z,100714.06
2022-10-08T09:23:00.496Z,100713.72
2022-10-08T09:25:54.647Z,100699.53
2022-10-08T09:28:45.636Z,100725.56
2022-10-08T09:31:40.983Z,100724.59
2022-10-08T09:34:29.391Z,100731.38
2022-10-08T09:37:25.707Z,100716.81
2022-10-08T09:40:21.253Z,100734.63
2022-10-08T09:43:15.780Z,100736.16
2022-10-08T09:46:11.750Z,100730.41
2022-10-08T09:49:21.983Z,100718.63
2022-10-08T09:52:17.386Z,100735.44
2022-10-08T09:55:10.393Z,100731.06
2022-10-08T09:58:00.665Z,100749.25
2022-10-08T10:00:59.828Z,100738.19
2022-10-08T10:03:52.615Z,100724.75
2022-10-08T10:06:45.988Z,100735.03
2022-10-08T10:09:41.531Z,100728.56
2022-10-08T10:12:32.548Z,100736.72
2022-10-08T10:15:24.207Z,100740.84
2022-10-08T10:18:16.731Z,100739.03
2022-10-08T10:21:07.711Z,100734.50
2022-10-08T10:24:05.449Z,100736.72
2022-10-08T10:26:56.851Z,100755.63
2022-10-08T10:29:51.978Z,100746.63
2022-10-08T10:32:43.917Z,100751.81
2022-10-08T10:35:33.822Z,100740.91
2022-10-08T10:38:25.374Z,100735.22
2022-10-08T10:41:19.504Z,100737.94
2022-10-08T10:44:11.492Z,100742.84
2022-10-08T10:47:00.874Z,100743.91
2022-10-08T10:49:51.442Z,100681.22
2022-10-08T10:52:49.786Z,100750.28
2022-10-08T10:55:41.242Z,100733.06
2022-10-08T10:58:39.237Z,100735.03
2022-10-08T11:01:32.432Z,100742.97
2022-10-08T11:04:26.800Z,100737.22
2022-10-08T11:07:27.864Z,100739.31
2022-10-08T11:10:29.788Z,100738.00
2022-10-08T11:13:31.103Z,100725.00
2022-10-08T11:16:30.287Z,100737.22
2022-10-08T11:19:29.232Z,100739.94
2022-10-08T11:22:23.972Z,100734.16
2022-10-08T11:25:23.141Z,100725.25
2022-10-08T11:28:22.753Z,100736.47
2022-10-08T11:31:18.767Z,100737.69
2022-10-08T11:34:18.338Z,100732.09
2022-10-08T11:37:11.578Z,100735.13
2022-10-08T11:40:05.227Z,100716.34
2022-10-08T11:43:02.934Z,100730.72
2022-10-08T11:46:19.573Z,100744.19
2022-10-08T11:49:41.149Z,100741.44
2022-10-08T11:52:30.569Z,100731.88
2022-10-08T11:55:25.172Z,100736.13
2022-10-08T11:58:23.555Z,100731.25
2022-10-08T12:01:12.164Z,100735.13
2022-10-08T12:04:04.937Z,100726.72
2022-10-08T12:07:04.688Z,100730.84
2022-10-08T12:10:29.438Z,100738.84
2022-10-08T12:13:30.515Z,100728.16
2022-10-08T12:16:18.993Z,100746.53
2022-10-08T12:19:27.690Z,100737.03
2022-10-08T12:22:43.804Z,100737.16
2022-10-08T12:25:40.811Z,100729.91
2022-10-08T12:28:50.291Z,100739.59
2022-10-08T12:31:42.140Z,100745.13
2022-10-08T12:34:33.400Z,100736.88
2022-10-08T12:37:46.120Z,100734.03
2022-10-08T12:40:37.906Z,100728.69
2022-10-08T12:43:34.363Z,100723.34
2022-10-08T12:46:33.642Z,100698.28
2022-10-08T12:49:28.249Z,100721.06
2022-10-08T12:52:17.562Z,100720.47
2022-10-08T12:55:06.848Z,100710.09
2022-10-08T12:57:55.669Z,100721.97
2022-10-08T13:00:45.754Z,100709.38
2022-10-08T13:03:35.635Z,100721.22
2022-10-08T13:06:33.022Z,100721.44
2022-10-08T13:09:31.328Z,100701.69
2022-10-08T13:12:19.917Z,100727.69
2022-10-08T13:15:24.063Z,100730.41
2022-10-08T13:18:16.107Z,100732.59
2022-10-08T13:21:07.962Z,100735.72
2022-10-08T13:23:56.500Z,100687.41
2022-10-08T13:26:46.094Z,100708.91
2022-10-08T13:29:36.390Z,100701.66
2022-10-08T13:32:26.578Z,100732.94
2022-10-08T13:35:21.486Z,100725.69
2022-10-08T13:38:20.415Z,100721.44
2022-10-08T13:41:09.700Z,100717.97
2022-10-08T13:43:58.144Z,100722.19
2022-10-08T13:46:46.795Z,100719.47
2022-10-08T13:49:35.520Z,100722.03
2022-10-08T13:52:25.799Z,100723.91
2022-10-08T13:55:24.092Z,100713.53
2022-10-08T13:58:14.571Z,100715.31
2022-10-08T14:01:03.092Z,100724.56
2022-10-08T14:03:51.604Z,100720.09
2022-10-08T14:06:41.092Z,100718.38
2022-10-08T14:09:30.491Z,100715.59
2022-10-08T14:12:23.865Z,100719.03
2022-10-08T14:15:13.342Z,100721.47
2022-10-08T14:18:01.807Z,100715.19
2022-10-08T14:20:51.904Z,100716.75
2022-10-08T14:23:40.326Z,100714.09
2022-10-08T14:26:30.158Z,100702.72
2022-10-08T14:29:19.960Z,100718.59
2022-10-08T14:32:09.368Z,100710.44
2022-10-08T14:34:57.925Z,100680.53
2022-10-08T14:37:46.975Z,100723.00
2022-10-08T14:40:35.759Z,100726.88
2022-10-08T14:43:27.555Z,100719.28
2022-10-08T14:46:18.474Z,100721.94
2022-10-08T14:49:06.976Z,100720.34
2022-10-08T14:51:55.483Z,100724.72
2022-10-08T14:54:43.976Z,100727.28
2022-10-08T14:57:32.512Z,100722.66
2022-10-08T15:00:21.153Z,100729.91
2022-10-08T15:03:11.084Z,100722.25
2022-10-08T15:06:00.411Z,100720.00
2022-10-08T15:08:48.915Z,100718.97
2022-10-08T15:11:37.483Z,100720.78
2022-10-08T15:14:25.953Z,100720.78
2022-10-08T15:17:14.452Z,100685.66
2022-10-08T15:20:04.783Z,100726.50
2022-10-08T15:22:53.231Z,100727.22
2022-10-08T15:25:41.855Z,100723.00
2022-10-08T15:28:31.061Z,100716.47
2022-10-08T15:31:21.308Z,100724.19
2022-10-08T15:34:17.186Z,100725.72
2022-10-08T15:37:07.957Z,100718.13
2022-10-08T15:39:56.471Z,100726.06
2022-10-08T15:42:45.425Z,100719.47
2022-10-08T15:45:42.583Z,100705.22
2022-10-08T15:48:31.633Z,100729.88
2022-10-08T15:51:20.286Z,100737.06
2022-10-08T15:54:10.159Z,100742.94
2022-10-08T15:56:58.606Z,100738.97
2022-10-08T15:59:47.040Z,100724.56
2022-10-08T16:02:35.553Z,100721.00
2022-10-08T16:05:24.144Z,100746.38
2022-10-08T16:08:12.557Z,100746.88
2022-10-08T16:11:12.948Z,100751.00
2022-10-08T16:14:03.018Z,100743.44
2022-10-08T16:16:52.119Z,100692.59
2022-10-08T16:19:40.698Z,100759.00
2022-10-08T16:22:29.296Z,100757.59
2022-10-08T16:25:17.756Z,100751.84
2022-10-08T16:28:07.763Z,100755.34
2022-10-08T16:30:57.904Z,100750.97
2022-10-08T16:33:46.673Z,100752.25
2022-10-08T16:36:36.500Z,100752.75
2022-10-08T16:39:25.216Z,100763.59
2022-10-08T16:42:13.774Z,100767.16
2022-10-08T16:45:03.620Z,100761.03
2022-10-08T16:47:52.164Z,100761.47
2022-10-08T16:50:41.457Z,100779.94
2022-10-08T16:53:29.928Z,100788.84
2022-10-08T16:56:18.916Z,100785.47
2022-10-08T16:59:08.885Z,100795.22
2022-10-08T17:02:00.009Z,100787.56
2022-10-08T17:04:48.574Z,100806.28
2022-10-08T17:07:37.077Z,100752.78
2022-10-08T17:10:25.544Z,100810.00
2022-10-08T17:13:13.999Z,100803.44
2022-10-08T17:16:03.983Z,100779.19
2022-10-08T17:18:54.793Z,100812.81
2022-10-08T17:21:43.367Z,100814.56
2022-10-08T17:24:31.836Z,100822.75
2022-10-08T17:27:20.290Z,100740.69
2022-10-08T17:30:09.959Z,100841.59
2022-10-08T17:32:58.678Z,100808.16
2022-10-08T17:35:48.537Z,100833.47
2022-10-08T17:38:37.886Z,100847.41
2022-10-08T17:41:27.724Z,100860.78
2022-10-08T17:44:16.191Z,100860.22
2022-10-08T17:47:04.910Z,100861.44
2022-10-08T17:49:53.407Z,100862.50
2022-10-08T17:52:43.309Z,100870.84
2022-10-08T17:55:33.133Z,100857.81
2022-10-08T17:58:21.577Z,100879.22
2022-10-08T18:01:13.125Z,100873.00
2022-10-08T18:04:03.074Z,100862.69
2022-10-08T18:06:51.528Z,100857.31
2022-10-08T18:09:41.548Z,100876.84
2022-10-08T18:12:30.148Z,100883.91
2022-10-08T18:15:18.598Z,100891.19
2022-10-08T18:18:07.129Z,100884.34
2022-10-08T18:20:56.505Z,100833.31
2022-10-08T18:23:46.548Z,100887.47
2022-10-08T18:26:37.084Z,100893.88
2022-10-08T18:29:25.699Z,100891.59
2022-10-08T18:32:14.308Z,100862.56
2022-10-08T18:35:02.910Z,100903.63
2022-10-08T18:37:51.467Z,100904.66
2022-10-08T18:40:40.140Z,100905.50
2022-10-08T18:43:30.041Z,100910.25
2022-10-08T18:46:20.567Z,100902.56
2022-10-08T18:49:09.057Z,100909.59
2022-10-08T18:51:57.870Z,100917.25
2022-10-08T18:54:46.514Z,100914.56
2022-10-08T18:57:35.259Z,100916.56
2022-10-08T19:00:25.108Z,100908.00
2022-10-08T19:03:13.553Z,100919.53
2022-10-08T19:06:02.097Z,100925.53
2022-10-08T19:08:50.651Z,100932.63
2022-10-08T19:11:44.455Z,100935.13
2022-10-08T19:14:33.622Z,100917.44
2022-10-08T19:17:23.476Z,100940.31
2022-10-08T19:20:11.976Z,100941.56
2022-10-08T19:23:00.511Z,100928.09
2022-10-08T19:25:53.744Z,100944.13
2022-10-08T19:28:46.282Z,100947.63
2022-10-08T19:31:36.159Z,100948.44
2022-10-08T19:34:27.263Z,100952.19
2022-10-08T19:37:15.928Z,100929.91
2022-10-08T19:40:05.797Z,100960.00
2022-10-08T19:42:54.327Z,100953.03
2022-10-08T19:45:42.855Z,100931.84
2022-10-08T19:48:31.773Z,100954.25
2022-10-08T19:51:22.201Z,100969.75
2022-10-08T19:54:11.050Z,100970.31
2022-10-08T19:56:59.517Z,100950.50
2022-10-08T19:59:48.027Z,100978.16
2022-10-08T20:02:36.570Z,100975.41
2022-10-08T20:05:25.267Z,100988.81
2022-10-08T20:08:15.093Z,100975.13
2022-10-08T20:11:05.146Z,100980.88
2022-10-08T20:13:54.603Z,100964.66
2022-10-08T20:16:43.695Z,100979.63
2022-10-08T20:19:32.284Z,100995.88
2022-10-08T20:22:20.743Z,100990.91
2022-10-08T20:25:10.817Z,100968.84
2022-10-08T20:27:59.264Z,100892.22
2022-10-08T20:30:47.714Z,100997.88
2022-10-08T20:33:36.239Z,100995.59
2022-10-08T20:36:24.845Z,100998.22
2022-10-08T20:39:14.344Z,100967.44
2022-10-08T20:42:04.182Z,100999.81
2022-10-08T20:44:52.887Z,100998.81
2022-10-08T20:47:41.348Z,100991.44
2022-10-08T20:50:29.806Z,100998.72
2022-10-08T20:53:18.396Z,101003.88
2022-10-08T20:56:07.791Z,100995.72
2022-10-08T20:58:58.066Z,101008.88
2022-10-08T21:01:47.509Z,100996.91
2022-10-08T21:04:35.980Z,101009.50
2022-10-08T21:07:24.432Z,101012.09
2022-10-08T21:10:12.842Z,100973.81
2022-10-08T21:13:01.342Z,101005.19
2022-10-08T21:16:00.582Z,101017.50
2022-10-08T21:18:50.828Z,101010.00
2022-10-08T21:21:39.472Z,101012.69
2022-10-08T21:24:27.928Z,101012.03
2022-10-08T21:27:16.401Z,101007.22
2022-10-08T21:30:05.458Z,101008.63
2022-10-08T21:32:55.327Z,101015.97
2022-10-08T21:35:43.788Z,101001.88
2022-10-08T21:38:32.443Z,101006.22
2022-10-08T21:41:22.948Z,101023.38
2022-10-08T21:44:11.450Z,101021.91
2022-10-08T21:46:59.905Z,101034.59
2022-10-08T21:49:49.907Z,101014.09
2022-10-08T21:52:38.387Z,101019.84
2022-10-08T21:55:26.798Z,101026.72
2022-10-08T21:58:15.261Z,101031.97
2022-10-08T22:01:03.861Z,101034.66
2022-10-08T22:03:55.786Z,101036.91
2022-10-08T22:06:47.376Z,101037.25
2022-10-08T22:09:35.838Z,101029.09
2022-10-08T22:12:25.405Z,101009.28
2022-10-08T22:15:13.876Z,101028.06
2022-10-08T22:18:02.340Z,101028.63
2022-10-08T22:20:51.157Z,101004.94
2022-10-08T22:23:41.218Z,101024.94
2022-10-08T22:26:31.846Z,101021.31
2022-10-08T22:29:20.302Z,101026.56
2022-10-08T22:32:08.707Z,101016.38
2022-10-08T22:34:57.126Z,101023.78
2022-10-08T22:37:45.561Z,101009.94
2022-10-08T22:40:35.353Z,101019.84
2022-10-08T22:43:23.803Z,101022.13
2022-10-08T22:46:14.593Z,101017.69
2022-10-08T22:49:04.594Z,101017.56
2022-10-08T22:51:53.055Z,101014.81
2022-10-08T22:54:41.516Z,101001.16
2022-10-08T22:57:31.343Z,100979.84
2022-10-08T23:00:19.915Z,101019.31
2022-10-08T23:03:08.717Z,101019.44
2022-10-08T23:06:05.172Z,101019.63
2022-10-08T23:08:55.138Z,101008.59
2022-10-08T23:11:43.578Z,101010.25
2022-10-08T23:14:33.352Z,101009.88
2022-10-08T23:17:21.813Z,101002.44
2022-10-08T23:20:10.495Z,101006.69
2022-10-08T23:22:58.938Z,101003.88
2022-10-08T23:25:53.768Z,101000.69
2022-10-08T23:28:42.452Z,100993.59
2022-10-08T23:31:34.726Z,100998.78
2022-10-08T23:34:23.179Z,100995.06
2022-10-08T23:37:11.590Z,100993.06
2022-10-08T23:40:00.024Z,101001.13
2022-10-08T23:42:48.714Z,100978.72
2022-10-08T23:45:37.390Z,100970.75
2022-10-08T23:48:27.241Z,101000.78
2022-10-08T23:51:16.996Z,100991.72
2022-10-08T23:54:05.632Z,100991.38
2022-10-08T23:56:54.094Z,100991.38
2022-10-08T23:59:42.513Z,100972.44
